sensor_id;sensor_type;location;lat;lon;timestamp;pressure;altitude;pressure_sealevel;temperature;humidity
79374;BME280;68844;53.128;17.958;2023-04-30T00:02:11;101106.16;;;5.25;80.87
79374;BME280;68844;53.128;17.958;2023-04-30T00:04:37;101104.23;;;5.19;80.92
79374;BME280;68844;53.128;17.958;2023-04-30T00:07:04;101107.14;;;5.15;80.90
79374;BME280;68844;53.128;17.958;2023-04-30T00:09:31;101104.97;;;5.12;80.72
79374;BME280;68844;53.128;17.958;2023-04-30T00:11:58;101110.79;;;5.10;81.46
79374;BME280;68844;53.128;17.958;2023-04-30T00:14:24;101110.67;;;5.02;82.20
79374;BME280;68844;53.128;17.958;2023-04-30T00:16:51;101117.18;;;4.94;81.73
79374;BME280;68844;53.128;17.958;2023-04-30T00:19:18;101120.80;;;4.90;81.92
79374;BME280;68844;53.128;17.958;2023-04-30T00:21:44;101122.94;;;4.88;81.50
79374;BME280;68844;53.128;17.958;2023-04-30T00:24:11;101127.66;;;4.87;82.16
79374;BME280;68844;53.128;17.958;2023-04-30T00:26:38;101136.77;;;4.87;82.39
79374;BME280;68844;53.128;17.958;2023-04-30T00:29:04;101140.48;;;4.85;82.03
79374;BME280;68844;53.128;17.958;2023-04-30T00:31:32;101144.20;;;4.82;82.36
79374;BME280;68844;53.128;17.958;2023-04-30T00:33:58;101146.30;;;4.81;81.84
79374;BME280;68844;53.128;17.958;2023-04-30T00:36:25;101151.52;;;4.82;82.09
79374;BME280;68844;53.128;17.958;2023-04-30T00:38:52;101153.67;;;4.80;82.03
79374;BME280;68844;53.128;17.958;2023-04-30T00:41:19;101152.59;;;4.76;81.90
79374;BME280;68844;53.128;17.958;2023-04-30T00:43:46;101159.19;;;4.70;81.70
79374;BME280;68844;53.128;17.958;2023-04-30T00:46:13;101162.73;;;4.68;81.54
79374;BME280;68844;53.128;17.958;2023-04-30T00:48:40;101167.34;;;4.65;81.40
79374;BME280;68844;53.128;17.958;2023-04-30T00:51:07;101170.80;;;4.59;82.09
79374;BME280;68844;53.128;17.958;2023-04-30T00:53:34;101177.63;;;4.52;82.12
79374;BME280;68844;53.128;17.958;2023-04-30T00:56:01;101178.92;;;4.49;81.69
79374;BME280;68844;53.128;17.958;2023-04-30T00:58:28;101182.15;;;4.46;81.70
79374;BME280;68844;53.128;17.958;2023-04-30T01:04:07;101183.92;;;4.44;82.06
79374;BME280;68844;53.128;17.958;2023-04-30T01:06:34;101184.34;;;4.41;82.18
79374;BME280;68844;53.128;17.958;2023-04-30T01:09:01;101188.08;;;4.38;82.00
79374;BME280;68844;53.128;17.958;2023-04-30T01:11:55;101193.71;;;4.36;81.84
79374;BME280;68844;53.128;17.958;2023-04-30T01:14:30;101197.02;;;4.35;81.73
79374;BME280;68844;53.128;17.958;2023-04-30T01:17:16;101194.13;;;4.33;82.27
79374;BME280;68844;53.128;17.958;2023-04-30T01:19:47;101199.23;;;4.31;82.12
79374;BME280;68844;53.128;17.958;2023-04-30T01:30:22;101204.66;;;4.29;82.42
79374;BME280;68844;53.128;17.958;2023-04-30T01:32:49;101207.55;;;4.26;82.41
79374;BME280;68844;53.128;17.958;2023-04-30T01:35:16;101208.66;;;4.23;82.43
79374;BME280;68844;53.128;17.958;2023-04-30T01:43:51;101221.08;;;4.14;82.06
79374;BME280;68844;53.128;17.958;2023-04-30T01:46:27;101226.46;;;4.07;82.35
79374;BME280;68844;53.128;17.958;2023-04-30T01:49:14;101229.42;;;3.99;82.62
79374;BME280;68844;53.128;17.958;2023-04-30T01:51:47;101238.85;;;3.91;82.34
79374;BME280;68844;53.128;17.958;2023-04-30T01:54:25;101237.42;;;3.84;82.01
79374;BME280;68844;53.128;17.958;2023-04-30T01:57:05;101240.78;;;3.83;81.98
79374;BME280;68844;53.128;17.958;2023-04-30T01:59:38;101240.67;;;3.79;82.23
79374;BME280;68844;53.128;17.958;2023-04-30T02:02:05;101242.70;;;3.74;82.16
79374;BME280;68844;53.128;17.958;2023-04-30T02:04:32;101244.86;;;3.70;82.09
79374;BME280;68844;53.128;17.958;2023-04-30T02:06:59;101245.65;;;3.66;81.95
79374;BME280;68844;53.128;17.958;2023-04-30T02:09:26;101248.45;;;3.65;81.87
79374;BME280;68844;53.128;17.958;2023-04-30T02:11:53;101246.62;;;3.61;82.33
79374;BME280;68844;53.128;17.958;2023-04-30T02:14:20;101247.23;;;3.56;82.13
79374;BME280;68844;53.128;17.958;2023-04-30T02:16:46;101251.84;;;3.53;82.32
79374;BME280;68844;53.128;17.958;2023-04-30T02:19:13;101254.36;;;3.50;82.11
79374;BME280;68844;53.128;17.958;2023-04-30T02:21:39;101259.57;;;3.50;82.09
79374;BME280;68844;53.128;17.958;2023-04-30T02:24:06;101265.39;;;3.46;82.09
79374;BME280;68844;53.128;17.958;2023-04-30T02:26:33;101267.23;;;3.41;82.46
79374;BME280;68844;53.128;17.958;2023-04-30T02:28:59;101266.31;;;3.35;82.80
79374;BME280;68844;53.128;17.958;2023-04-30T02:31:26;101265.02;;;3.29;82.46
79374;BME280;68844;53.128;17.958;2023-04-30T02:33:52;101265.77;;;3.26;82.18
79374;BME280;68844;53.128;17.958;2023-04-30T02:36:20;101266.55;;;3.22;82.36
79374;BME280;68844;53.128;17.958;2023-04-30T02:38:47;101266.63;;;3.18;82.37
79374;BME280;68844;53.128;17.958;2023-04-30T02:41:13;101267.56;;;3.14;82.60
79374;BME280;68844;53.128;17.958;2023-04-30T02:43:40;101269.05;;;3.09;83.07
79374;BME280;68844;53.128;17.958;2023-04-30T02:46:06;101269.44;;;3.06;82.42
79374;BME280;68844;53.128;17.958;2023-04-30T02:48:33;101277.67;;;3.03;82.29
79374;BME280;68844;53.128;17.958;2023-04-30T02:50:59;101275.52;;;2.97;82.64
79374;BME280;68844;53.128;17.958;2023-04-30T02:53:26;101280.14;;;2.91;82.44
79374;BME280;68844;53.128;17.958;2023-04-30T02:55:53;101283.72;;;2.86;82.26
79374;BME280;68844;53.128;17.958;2023-04-30T02:58:19;101283.26;;;2.81;81.98
79374;BME280;68844;53.128;17.958;2023-04-30T03:00:46;101282.61;;;2.78;82.31
79374;BME280;68844;53.128;17.958;2023-04-30T03:03:13;101284.77;;;2.74;82.54
79374;BME280;68844;53.128;17.958;2023-04-30T03:05:39;101287.98;;;2.70;82.70
79374;BME280;68844;53.128;17.958;2023-04-30T03:08:06;101292.02;;;2.67;82.52
79374;BME280;68844;53.128;17.958;2023-04-30T03:10:33;101287.89;;;2.64;82.52
79374;BME280;68844;53.128;17.958;2023-04-30T03:12:59;101293.98;;;2.65;82.32
79374;BME280;68844;53.128;17.958;2023-04-30T03:15:26;101297.81;;;2.64;82.88
79374;BME280;68844;53.128;17.958;2023-04-30T03:17:52;101301.66;;;2.61;82.80
79374;BME280;68844;53.128;17.958;2023-04-30T03:20:20;101299.47;;;2.58;82.63
79374;BME280;68844;53.128;17.958;2023-04-30T03:22:46;101306.81;;;2.55;82.86
79374;BME280;68844;53.128;17.958;2023-04-30T03:25:13;101313.77;;;2.55;82.60
79374;BME280;68844;53.128;17.958;2023-04-30T03:27:40;101315.15;;;2.55;82.87
79374;BME280;68844;53.128;17.958;2023-04-30T03:30:07;101315.54;;;2.53;83.10
79374;BME280;68844;53.128;17.958;2023-04-30T03:32:34;101321.10;;;2.53;83.30
79374;BME280;68844;53.128;17.958;2023-04-30T03:35:00;101324.20;;;2.54;83.05
79374;BME280;68844;53.128;17.958;2023-04-30T03:37:27;101323.30;;;2.58;82.83
79374;BME280;68844;53.128;17.958;2023-04-30T03:39:54;101328.61;;;2.62;83.12
79374;BME280;68844;53.128;17.958;2023-04-30T03:42:20;101327.58;;;2.61;83.35
79374;BME280;68844;53.128;17.958;2023-04-30T03:44:47;101330.52;;;2.62;83.33
79374;BME280;68844;53.128;17.958;2023-04-30T03:47:14;101329.11;;;2.64;82.94
79374;BME280;68844;53.128;17.958;2023-04-30T03:49:40;101333.73;;;2.70;82.97
79374;BME280;68844;53.128;17.958;2023-04-30T03:52:07;101334.86;;;2.73;83.01
79374;BME280;68844;53.128;17.958;2023-04-30T03:54:34;101344.36;;;2.78;83.18
79374;BME280;68844;53.128;17.958;2023-04-30T03:57:01;101344.80;;;2.83;83.18
79374;BME280;68844;53.128;17.958;2023-04-30T03:59:30;101347.84;;;2.89;83.04
79374;BME280;68844;53.128;17.958;2023-04-30T04:01:59;101348.58;;;2.97;83.16
79374;BME280;68844;53.128;17.958;2023-04-30T04:04:26;101351.55;;;3.06;83.27
79374;BME280;68844;53.128;17.958;2023-04-30T04:06:53;101351.61;;;3.14;83.28
79374;BME280;68844;53.128;17.958;2023-04-30T04:09:20;101356.90;;;3.20;82.86
79374;BME280;68844;53.128;17.958;2023-04-30T04:11:47;101361.64;;;3.28;83.31
79374;BME280;68844;53.128;17.958;2023-04-30T04:14:14;101363.38;;;3.39;82.96
79374;BME280;68844;53.128;17.958;2023-04-30T04:16:42;101369.48;;;3.48;82.80
79374;BME280;68844;53.128;17.958;2023-04-30T04:19:09;101371.64;;;3.53;82.89
79374;BME280;68844;53.128;17.958;2023-04-30T04:21:38;101371.82;;;3.62;83.18
79374;BME280;68844;53.128;17.958;2023-04-30T04:24:09;101377.23;;;3.70;82.95
79374;BME280;68844;53.128;17.958;2023-04-30T04:26:36;101376.16;;;3.81;83.03
79374;BME280;68844;53.128;17.958;2023-04-30T04:29:03;101378.12;;;3.97;82.65
79374;BME280;68844;53.128;17.958;2023-04-30T04:31:31;101381.71;;;4.09;82.77
79374;BME280;68844;53.128;17.958;2023-04-30T04:33:59;101383.17;;;4.23;82.86
79374;BME280;68844;53.128;17.958;2023-04-30T04:36:26;101390.48;;;4.78;82.28
79374;BME280;68844;53.128;17.958;2023-04-30T04:38:54;101387.36;;;6.92;78.22
79374;BME280;68844;53.128;17.958;2023-04-30T04:41:27;101385.39;;;9.20;70.39
79374;BME280;68844;53.128;17.958;2023-04-30T04:43:54;101382.77;;;10.93;66.03
79374;BME280;68844;53.128;17.958;2023-04-30T04:46:23;101383.38;;;12.39;62.91
79374;BME280;68844;53.128;17.958;2023-04-30T04:48:51;101387.66;;;13.74;62.32
79374;BME280;68844;53.128;17.958;2023-04-30T04:51:19;101386.04;;;14.67;57.89
79374;BME280;68844;53.128;17.958;2023-04-30T04:53:46;101389.14;;;15.35;55.96
79374;BME280;68844;53.128;17.958;2023-04-30T04:56:12;101390.30;;;15.91;53.81
79374;BME280;68844;53.128;17.958;2023-04-30T04:58:40;101394.54;;;16.60;49.95
79374;BME280;68844;53.128;17.958;2023-04-30T05:01:07;101397.55;;;17.27;47.29
79374;BME280;68844;53.128;17.958;2023-04-30T05:03:34;101400.55;;;18.07;45.71
79374;BME280;68844;53.128;17.958;2023-04-30T05:06:04;101400.41;;;18.87;40.95
79374;BME280;68844;53.128;17.958;2023-04-30T05:08:31;101406.64;;;19.69;42.61
79374;BME280;68844;53.128;17.958;2023-04-30T05:10:57;101411.38;;;20.16;41.24
79374;BME280;68844;53.128;17.958;2023-04-30T05:13:24;101411.90;;;20.45;39.33
79374;BME280;68844;53.128;17.958;2023-04-30T05:15:52;101410.55;;;20.73;36.45
79374;BME280;68844;53.128;17.958;2023-04-30T05:18:19;101411.89;;;20.91;36.02
79374;BME280;68844;53.128;17.958;2023-04-30T05:20:46;101418.44;;;21.03;34.68
79374;BME280;68844;53.128;17.958;2023-04-30T05:23:12;101422.32;;;21.49;35.88
79374;BME280;68844;53.128;17.958;2023-04-30T05:25:39;101424.87;;;22.02;34.22
79374;BME280;68844;53.128;17.958;2023-04-30T05:28:06;101425.25;;;22.41;34.04
79374;BME280;68844;53.128;17.958;2023-04-30T05:30:32;101427.48;;;22.57;32.70
79374;BME280;68844;53.128;17.958;2023-04-30T05:32:59;101432.73;;;22.77;33.31
79374;BME280;68844;53.128;17.958;2023-04-30T05:35:26;101434.80;;;23.24;31.89
79374;BME280;68844;53.128;17.958;2023-04-30T05:37:52;101435.17;;;23.43;31.38
79374;BME280;68844;53.128;17.958;2023-04-30T05:40:19;101435.29;;;23.63;30.08
79374;BME280;68844;53.128;17.958;2023-04-30T05:42:46;101440.36;;;23.85;29.58
79374;BME280;68844;53.128;17.958;2023-04-30T05:45:12;101441.94;;;23.35;28.37
79374;BME280;68844;53.128;17.958;2023-04-30T05:47:42;101441.98;;;23.14;29.19
79374;BME280;68844;53.128;17.958;2023-04-30T05:50:09;101442.73;;;22.51;28.44
79374;BME280;68844;53.128;17.958;2023-04-30T05:52:36;101446.94;;;23.24;28.95
79374;BME280;68844;53.128;17.958;2023-04-30T05:55:03;101450.23;;;23.74;28.15
79374;BME280;68844;53.128;17.958;2023-04-30T05:57:29;101453.33;;;23.70;28.37
79374;BME280;68844;53.128;17.958;2023-04-30T05:59:56;101460.05;;;23.96;27.37
79374;BME280;68844;53.128;17.958;2023-04-30T06:02:22;101464.29;;;24.30;27.25
79374;BME280;68844;53.128;17.958;2023-04-30T06:04:49;101460.35;;;24.29;26.39
79374;BME280;68844;53.128;17.958;2023-04-30T06:07:16;101466.51;;;24.70;26.59
79374;BME280;68844;53.128;17.958;2023-04-30T06:09:43;101468.64;;;24.77;25.34
79374;BME280;68844;53.128;17.958;2023-04-30T06:12:09;101466.42;;;24.43;25.28
79374;BME280;68844;53.128;17.958;2023-04-30T06:14:36;101467.55;;;24.51;25.68
79374;BME280;68844;53.128;17.958;2023-04-30T06:17:03;101472.98;;;25.27;24.13
79374;BME280;68844;53.128;17.958;2023-04-30T06:19:29;101477.52;;;25.25;23.93
79374;BME280;68844;53.128;17.958;2023-04-30T06:21:56;101475.73;;;25.45;24.52
79374;BME280;68844;53.128;17.958;2023-04-30T06:24:22;101469.09;;;26.50;23.76
79374;BME280;68844;53.128;17.958;2023-04-30T06:26:52;101471.85;;;26.90;23.38
79374;BME280;68844;53.128;17.958;2023-04-30T06:29:19;101469.20;;;27.26;22.15
79374;BME280;68844;53.128;17.958;2023-04-30T06:31:46;101473.17;;;27.34;21.82
79374;BME280;68844;53.128;17.958;2023-04-30T06:34:12;101477.09;;;27.56;21.54
79374;BME280;68844;53.128;17.958;2023-04-30T06:36:39;101475.34;;;26.92;21.70
79374;BME280;68844;53.128;17.958;2023-04-30T06:39:05;101474.69;;;27.41;21.26
79374;BME280;68844;53.128;17.958;2023-04-30T06:41:32;101474.53;;;27.90;20.83
79374;BME280;68844;53.128;17.958;2023-04-30T06:43:59;101478.09;;;27.98;21.04
79374;BME280;68844;53.128;17.958;2023-04-30T06:46:26;101478.21;;;28.48;20.01
79374;BME280;68844;53.128;17.958;2023-04-30T06:48:52;101478.91;;;27.14;20.77
79374;BME280;68844;53.128;17.958;2023-04-30T06:51:19;101476.65;;;27.15;20.20
79374;BME280;68844;53.128;17.958;2023-04-30T06:53:45;101476.45;;;27.04;20.52
79374;BME280;68844;53.128;17.958;2023-04-30T06:56:12;101483.89;;;27.52;20.84
79374;BME280;68844;53.128;17.958;2023-04-30T06:58:39;101483.45;;;27.67;20.37
79374;BME280;68844;53.128;17.958;2023-04-30T07:01:05;101492.23;;;27.32;20.26
79374;BME280;68844;53.128;17.958;2023-04-30T07:03:33;101492.09;;;27.41;20.51
79374;BME280;68844;53.128;17.958;2023-04-30T07:06:00;101493.48;;;26.25;20.85
79374;BME280;68844;53.128;17.958;2023-04-30T07:08:27;101488.13;;;27.22;20.24
79374;BME280;68844;53.128;17.958;2023-04-30T07:10:54;101491.20;;;27.14;20.49
79374;BME280;68844;53.128;17.958;2023-04-30T07:13:21;101491.60;;;27.82;20.13
79374;BME280;68844;53.128;17.958;2023-04-30T07:15:47;101497.34;;;27.90;19.19
79374;BME280;68844;53.128;17.958;2023-04-30T07:18:14;101497.39;;;27.91;19.29
79374;BME280;68844;53.128;17.958;2023-04-30T07:20:41;101497.55;;;26.92;19.10
79374;BME280;68844;53.128;17.958;2023-04-30T07:23:08;101498.88;;;27.08;19.59
79374;BME280;68844;53.128;17.958;2023-04-30T07:25:34;101499.35;;;27.21;18.99
79374;BME280;68844;53.128;17.958;2023-04-30T07:28:01;101506.42;;;26.87;19.00
79374;BME280;68844;53.128;17.958;2023-04-30T07:30:28;101505.41;;;27.29;18.68
79374;BME280;68844;53.128;17.958;2023-04-30T07:32:55;101511.70;;;26.71;19.59
79374;BME280;68844;53.128;17.958;2023-04-30T07:35:21;101505.54;;;27.27;18.77
79374;BME280;68844;53.128;17.958;2023-04-30T07:37:48;101510.17;;;27.01;18.77
79374;BME280;68844;53.128;17.958;2023-04-30T07:40:14;101510.36;;;27.27;19.54
79374;BME280;68844;53.128;17.958;2023-04-30T07:42:41;101518.10;;;26.21;19.27
79374;BME280;68844;53.128;17.958;2023-04-30T07:45:08;101515.59;;;26.46;19.53
79374;BME280;68844;53.128;17.958;2023-04-30T07:47:35;101519.02;;;26.77;18.77
79374;BME280;68844;53.128;17.958;2023-04-30T07:50:02;101521.30;;;26.62;18.37
79374;BME280;68844;53.128;17.958;2023-04-30T07:52:28;101516.88;;;27.30;18.16
79374;BME280;68844;53.128;17.958;2023-04-30T07:54:55;101515.96;;;27.66;18.12
79374;BME280;68844;53.128;17.958;2023-04-30T07:57:22;101518.86;;;28.04;17.19
79374;BME280;68844;53.128;17.958;2023-04-30T07:59:48;101526.05;;;28.06;16.66
79374;BME280;68844;53.128;17.958;2023-04-30T08:02:15;101522.85;;;27.61;16.47
79374;BME280;68844;53.128;17.958;2023-04-30T08:04:42;101524.49;;;27.44;16.17
79374;BME280;68844;53.128;17.958;2023-04-30T08:07:09;101528.21;;;26.66;17.27
79374;BME280;68844;53.128;17.958;2023-04-30T08:09:35;101527.25;;;26.70;18.22
79374;BME280;68844;53.128;17.958;2023-04-30T08:12:02;101523.70;;;27.19;17.73
79374;BME280;68844;53.128;17.958;2023-04-30T08:14:31;101530.54;;;27.68;17.48
79374;BME280;68844;53.128;17.958;2023-04-30T08:16:58;101526.14;;;27.58;17.44
79374;BME280;68844;53.128;17.958;2023-04-30T08:19:26;101526.43;;;27.36;17.71
79374;BME280;68844;53.128;17.958;2023-04-30T08:21:52;101526.45;;;28.31;17.46
79374;BME280;68844;53.128;17.958;2023-04-30T08:24:19;101530.25;;;28.04;17.09
79374;BME280;68844;53.128;17.958;2023-04-30T08:26:46;101536.00;;;28.30;17.33
79374;BME280;68844;53.128;17.958;2023-04-30T08:29:13;101537.18;;;28.80;16.58
79374;BME280;68844;53.128;17.958;2023-04-30T08:31:39;101536.30;;;28.02;16.40
79374;BME280;68844;53.128;17.958;2023-04-30T08:34:06;101540.29;;;28.57;16.38
79374;BME280;68844;53.128;17.958;2023-04-30T08:36:32;101547.95;;;28.09;15.84
79374;BME280;68844;53.128;17.958;2023-04-30T08:38:59;101553.70;;;26.88;17.05
79374;BME280;68844;53.128;17.958;2023-04-30T08:41:31;101557.30;;;26.11;17.76
79374;BME280;68844;53.128;17.958;2023-04-30T08:44:00;101560.10;;;26.78;16.74
79374;BME280;68844;53.128;17.958;2023-04-30T08:46:31;101554.00;;;26.73;16.34
79374;BME280;68844;53.128;17.958;2023-04-30T08:49:00;101555.86;;;25.75;17.35
79374;BME280;68844;53.128;17.958;2023-04-30T08:51:29;101561.02;;;26.47;16.77
79374;BME280;68844;53.128;17.958;2023-04-30T08:53:57;101561.23;;;26.79;16.58
79374;BME280;68844;53.128;17.958;2023-04-30T08:56:24;101557.00;;;27.37;15.77
79374;BME280;68844;53.128;17.958;2023-04-30T08:58:51;101558.48;;;27.05;15.68
79374;BME280;68844;53.128;17.958;2023-04-30T09:01:18;101562.60;;;27.10;16.25
79374;BME280;68844;53.128;17.958;2023-04-30T09:03:46;101564.02;;;27.43;15.71
79374;BME280;68844;53.128;17.958;2023-04-30T09:06:16;101563.85;;;27.52;15.36
79374;BME280;68844;53.128;17.958;2023-04-30T09:08:45;101556.86;;;28.02;15.25
79374;BME280;68844;53.128;17.958;2023-04-30T09:11:30;101566.41;;;28.38;15.30
79374;BME280;68844;53.128;17.958;2023-04-30T09:14:00;101564.23;;;28.26;15.47
79374;BME280;68844;53.128;17.958;2023-04-30T09:16:28;101566.20;;;28.61;15.38
79374;BME280;68844;53.128;17.958;2023-04-30T09:18:58;101565.36;;;28.78;15.15
79374;BME280;68844;53.128;17.958;2023-04-30T09:21:31;101571.11;;;28.57;14.46
79374;BME280;68844;53.128;17.958;2023-04-30T09:24:00;101574.93;;;27.86;15.19
79374;BME280;68844;53.128;17.958;2023-04-30T09:28:58;101569.45;;;27.98;14.12
79374;BME280;68844;53.128;17.958;2023-04-30T09:31:26;101564.30;;;26.95;15.15
79374;BME280;68844;53.128;17.958;2023-04-30T09:33:53;101567.84;;;27.40;15.77
79374;BME280;68844;53.128;17.958;2023-04-30T09:36:20;101571.44;;;27.02;16.27
79374;BME280;68844;53.128;17.958;2023-04-30T09:38:47;101568.75;;;27.47;16.20
79374;BME280;68844;53.128;17.958;2023-04-30T09:41:22;101564.55;;;27.77;16.00
79374;BME280;68844;53.128;17.958;2023-04-30T09:43:49;101562.55;;;27.23;16.07
79374;BME280;68844;53.128;17.958;2023-04-30T09:46:18;101567.00;;;27.28;16.30
79374;BME280;68844;53.128;17.958;2023-04-30T09:48:45;101563.63;;;27.09;16.46
79374;BME280;68844;53.128;17.958;2023-04-30T09:51:11;101563.73;;;27.03;16.35
79374;BME280;68844;53.128;17.958;2023-04-30T09:53:39;101567.52;;;26.72;16.52
79374;BME280;68844;53.128;17.958;2023-04-30T09:56:09;101563.96;;;26.74;17.25
79374;BME280;68844;53.128;17.958;2023-04-30T09:58:37;101567.30;;;26.86;16.75
79374;BME280;68844;53.128;17.958;2023-04-30T10:01:04;101570.37;;;25.72;17.17
79374;BME280;68844;53.128;17.958;2023-04-30T10:03:34;101571.13;;;25.46;18.04
79374;BME280;68844;53.128;17.958;2023-04-30T10:06:01;101571.84;;;25.69;19.03
79374;BME280;68844;53.128;17.958;2023-04-30T10:08:42;101563.29;;;26.53;17.75
79374;BME280;68844;53.128;17.958;2023-04-30T10:11:14;101556.89;;;26.74;17.30
79374;BME280;68844;53.128;17.958;2023-04-30T10:19:06;101558.47;;;23.76;19.71
79374;BME280;68844;53.128;17.958;2023-04-30T10:21:39;101558.96;;;24.00;20.00
79374;BME280;68844;53.128;17.958;2023-04-30T10:24:08;101553.11;;;24.22;19.84
79374;BME280;68844;53.128;17.958;2023-04-30T10:26:35;101554.30;;;24.47;19.93
79374;BME280;68844;53.128;17.958;2023-04-30T10:29:03;101556.43;;;24.61;19.74
79374;BME280;68844;53.128;17.958;2023-04-30T10:31:31;101550.72;;;24.76;19.14
79374;BME280;68844;53.128;17.958;2023-04-30T10:34:04;101552.43;;;24.59;18.98
79374;BME280;68844;53.128;17.958;2023-04-30T10:36:41;101551.83;;;24.29;19.87
79374;BME280;68844;53.128;17.958;2023-04-30T10:39:11;101549.39;;;24.03;20.07
79374;BME280;68844;53.128;17.958;2023-04-30T10:41:39;101546.98;;;24.08;19.86
79374;BME280;68844;53.128;17.958;2023-04-30T10:44:09;101547.11;;;23.90;20.19
79374;BME280;68844;53.128;17.958;2023-04-30T10:46:36;101544.65;;;23.56;20.51
79374;BME280;68844;53.128;17.958;2023-04-30T10:49:03;101547.73;;;23.32;20.37
79374;BME280;68844;53.128;17.958;2023-04-30T10:51:44;101546.30;;;23.08;20.64
79374;BME280;68844;53.128;17.958;2023-04-30T10:54:14;101549.16;;;22.71;21.16
79374;BME280;68844;53.128;17.958;2023-04-30T10:56:44;101543.44;;;22.89;21.43
79374;BME280;68844;53.128;17.958;2023-04-30T10:59:11;101545.25;;;22.89;21.34
79374;BME280;68844;53.128;17.958;2023-04-30T11:01:58;101544.46;;;22.29;21.86
79374;BME280;68844;53.128;17.958;2023-04-30T11:04:26;101549.29;;;21.93;22.89
79374;BME280;68844;53.128;17.958;2023-04-30T11:09:34;101551.84;;;21.99;22.84
79374;BME280;68844;53.128;17.958;2023-04-30T11:12:13;101549.89;;;21.69;22.77
79374;BME280;68844;53.128;17.958;2023-04-30T11:14:41;101556.17;;;21.05;23.09
79374;BME280;68844;53.128;17.958;2023-04-30T11:17:11;101553.45;;;20.36;24.26
79374;BME280;68844;53.128;17.958;2023-04-30T11:19:44;101554.45;;;20.47;24.61
79374;BME280;68844;53.128;17.958;2023-04-30T11:25:12;101547.52;;;20.09;24.02
79374;BME280;68844;53.128;17.958;2023-04-30T11:27:43;101552.09;;;19.01;24.98
79374;BME280;68844;53.128;17.958;2023-04-30T11:30:16;101550.01;;;18.66;25.58
79374;BME280;68844;53.128;17.958;2023-04-30T11:32:45;101550.13;;;19.17;25.41
79374;BME280;68844;53.128;17.958;2023-04-30T11:35:14;101543.10;;;19.17;23.84
79374;BME280;68844;53.128;17.958;2023-04-30T11:37:43;101549.99;;;19.23;24.62
79374;BME280;68844;53.128;17.958;2023-04-30T11:40:12;101545.13;;;19.23;24.59
79374;BME280;68844;53.128;17.958;2023-04-30T11:42:40;101538.60;;;19.42;24.10
79374;BME280;68844;53.128;17.958;2023-04-30T11:45:11;101543.09;;;19.74;24.30
79374;BME280;68844;53.128;17.958;2023-04-30T11:47:43;101538.48;;;19.80;24.75
79374;BME280;68844;53.128;17.958;2023-04-30T11:50:12;101541.23;;;19.83;25.17
79374;BME280;68844;53.128;17.958;2023-04-30T11:52:40;101542.50;;;19.94;25.03
79374;BME280;68844;53.128;17.958;2023-04-30T11:55:10;101541.59;;;19.86;25.17
79374;BME280;68844;53.128;17.958;2023-04-30T11:57:42;101539.65;;;19.90;25.64
79374;BME280;68844;53.128;17.958;2023-04-30T12:00:12;101543.19;;;20.01;25.67
79374;BME280;68844;53.128;17.958;2023-04-30T12:02:40;101541.11;;;20.06;25.23
79374;BME280;68844;53.128;17.958;2023-04-30T12:05:12;101548.30;;;19.74;24.71
79374;BME280;68844;53.128;17.958;2023-04-30T12:07:45;101549.19;;;19.37;25.03
79374;BME280;68844;53.128;17.958;2023-04-30T12:10:12;101543.92;;;19.18;25.24
79374;BME280;68844;53.128;17.958;2023-04-30T12:12:42;101542.33;;;19.11;25.41
79374;BME280;68844;53.128;17.958;2023-04-30T12:15:16;101539.31;;;19.06;25.49
79374;BME280;68844;53.128;17.958;2023-04-30T12:17:44;101540.98;;;19.26;25.21
79374;BME280;68844;53.128;17.958;2023-04-30T12:20:13;101536.91;;;19.38;25.31
79374;BME280;68844;53.128;17.958;2023-04-30T12:22:41;101530.33;;;19.34;25.03
79374;BME280;68844;53.128;17.958;2023-04-30T12:25:17;101538.18;;;19.23;25.27
79374;BME280;68844;53.128;17.958;2023-04-30T12:27:46;101541.23;;;18.99;25.83
79374;BME280;68844;53.128;17.958;2023-04-30T12:30:13;101542.28;;;19.21;25.31
79374;BME280;68844;53.128;17.958;2023-04-30T12:32:44;101545.30;;;19.34;25.34
79374;BME280;68844;53.128;17.958;2023-04-30T12:35:19;101548.75;;;19.18;24.82
79374;BME280;68844;53.128;17.958;2023-04-30T12:37:47;101550.34;;;19.00;24.25
79374;BME280;68844;53.128;17.958;2023-04-30T12:40:25;101549.91;;;18.86;24.18
79374;BME280;68844;53.128;17.958;2023-04-30T12:43:05;101547.95;;;18.79;25.62
79374;BME280;68844;53.128;17.958;2023-04-30T12:45:48;101554.27;;;18.71;25.01
79374;BME280;68844;53.128;17.958;2023-04-30T12:48:20;101544.48;;;18.96;25.59
79374;BME280;68844;53.128;17.958;2023-04-30T12:53:21;101545.69;;;19.40;25.65
79374;BME280;68844;53.128;17.958;2023-04-30T12:56:11;101544.61;;;19.38;25.09
79374;BME280;68844;53.128;17.958;2023-04-30T12:58:43;101538.25;;;18.82;25.62
79374;BME280;68844;53.128;17.958;2023-04-30T13:01:19;101543.09;;;18.95;26.46
79374;BME280;68844;53.128;17.958;2023-04-30T13:03:47;101538.41;;;19.13;26.42
79374;BME280;68844;53.128;17.958;2023-04-30T13:06:16;101535.67;;;19.25;25.54
79374;BME280;68844;53.128;17.958;2023-04-30T13:08:44;101537.18;;;18.69;25.86
79374;BME280;68844;53.128;17.958;2023-04-30T13:11:10;101526.65;;;18.24;26.69
79374;BME280;68844;53.128;17.958;2023-04-30T13:13:37;101526.98;;;18.41;26.75
79374;BME280;68844;53.128;17.958;2023-04-30T13:16:04;101527.48;;;18.65;26.30
79374;BME280;68844;53.128;17.958;2023-04-30T13:18:32;101529.73;;;18.59;25.99
79374;BME280;68844;53.128;17.958;2023-04-30T13:20:58;101528.54;;;18.42;26.19
79374;BME280;68844;53.128;17.958;2023-04-30T13:23:25;101533.48;;;18.35;26.38